NEODyS-2

Near Earth Objects - Dynamic Site
NEODyS ∴ Observatories ∴ Site 691 ∴ Obs & residuals
Contact »
691  ▹ 
OBSERVATIONS AND RESIDUALS

691-Steward Observatory, Kitt Peak-Spacewatch

Detections | Residuals | Detections & Residuals

[1-200] [201-400] [401-600] [601-800] [801-1000] [1001-1200] [1201-1400] [1401-1600] [1601-1800] [1801-2000] [2001-2200] [2201-2400] [2401-2600] [2601-2800] [2801-3000] [3001-3200] [3201-3400] [3401-3600] [3601-3800] [3801-4000] [4001-4200] [4201-4400] [4401-4600] [4601-4800] [4801-5000] [5001-5200] [5201-5400] [5401-5600] [5601-5800] [5801-6000] [6001-6200] [6201-6400] [6401-6600] [6601-6800] [6801-7000] [7001-7200] [7201-7400] [7401-7600] [7601-7800] [7801-8000] [8001-8200] [8201-8400] [8401-8600] [8601-8800] [8801-9000] [9001-9200] [9201-9400] [9401-9600] [9601-9800] [9801-10000] [10001-10200] [10201-10400] [10401-10600] [10601-10800] [10801-11000] [11001-11200] [11201-11400] [11401-11600] [11601-11800] [11801-12000] [12001-12200] [12201-12400] [12401-12600] [12601-12800] [12801-13000] [13001-13200] [13201-13400] [13401-13600] [13601-13800] [13801-14000] [14001-14200] [14201-14400] [14401-14600] [14601-14800] [14801-15000] [15001-15200] [15201-15400] [15401-15600] [15601-15800] [15801-16000] [16001-16200] [16201-16400] [16401-16600] [16601-16800] [16801-17000] [17001-17200] [17201-17400] [17401-17600] [17601-17800] [17801-18000] [18001-18200] [18201-18400] [18401-18600] [18601-18800] [18801-19000] [19001-19200] [19201-19400] [19401-19600] [19601-19800] [19801-20000] [20001-20200] [20201-20400] [20401-20600] [20601-20800] [20801-21000] [21001-21200] [21201-21400] [21401-21600] [21601-21800] [21801-22000] [22001-22200] [22201-22400] [22401-22600] [22601-22800] [22801-23000] [23001-23200] [23201-23400] [23401-23600] [23601-23800] [23801-24000] [24001-24200] [24201-24400] [24401-24600] [24601-24800] [24801-25000] [25001-25200] [25201-25400] [25401-25600] [25601-25800] [25801-26000] [26001-26200] [26201-26400] [26401-26600] [26601-26800] [26801-27000] [27001-27200] [27201-27400] [27401-27600] [27601-27800] [27801-28000] [28001-28200] [28201-28400] [28401-28600] [28601-28800] [28801-29000] [29001-29200] [29201-29400] [29401-29600] [29601-29800] [29801-30000] [30001-30200] [30201-30400] [30401-30600] [30601-30800] [30801-31000] [31001-31200] [31201-31400] [31401-31600] [31601-31800] [31801-32000] [32001-32200] [32201-32400] [32401-32600] [32601-32800] [32801-33000] [33001-33200] [33201-33400] [33401-33600] [33601-33800] [33801-34000] [34001-34200] [34201-34400] [34401-34600] [34601-34800] [34801-35000] [35001-35200] [35201-35400] [35401-35600] [35601-35800] [35801-36000] [36001-36200] [36201-36400] [36401-36600] [36601-36800] [36801-37000] [37001-37200] [37201-37400] [37401-37600] [37601-37800] [37801-38000] [38001-38200] [38201-38400] [38401-38600] [38601-38800] [38801-39000] [39001-39200] [39201-39400] [39401-39600] [39601-39800] [39801-40000] [40001-40200] [40201-40400] [40401-40600] [40601-40800] [40801-41000] [41001-41200] [41201-41400] [41401-41600] [41601-41800] [41801-42000] [42001-42200] [42201-42400] [42401-42600] [42601-42800] [42801-43000] [43001-43200] [43201-43400] [43401-43600] [43601-43800] [43801-44000] [44001-44200] [44201-44400] [44401-44600] [44601-44800] [44801-45000] [45001-45200] [45201-45400] [45401-45600] [45601-45800] [45801-46000] [46001-46200] [46201-46400] [46401-46600] [46601-46800] [46801-47000] [47001-47200] [47201-47400] [47401-47600] [47601-47800] [47801-48000] [48001-48200] [48201-48400] [48401-48600] [48601-48800] [48801-49000] [49001-49200] [49201-49400] [49401-49600] [49601-49800] [49801-50000] [50001-50200] [50201-50388]

Designation T Tech N Date Right Ascension Declination Apparent Magnitude Star Catalog Site code χ Used A Used M
yr-mo-day precision hr:min:sec precision rms F bias residual deg min sec precision rms F bias residual mag/col rms residual
2020XX3 O C K 2020-12-13.42872 1.000E-05 03:43:53.360 1.500E-01 0.500 F -0.212 0.354 +23° 50' 11.40" 1.000E-01 0.500 F 0.384 -0.122 19.9 R 0.70 0.13 o 691 0.75 Yes Yes
2020XX3 O C K 2020-12-13.43224 1.000E-05 03:43:52.680 1.500E-01 0.500 F -0.212 0.777 +23° 50' 03.20" 1.000E-01 0.500 F 0.384 -0.431 20.0 R 0.70 0.23 o 691 1.79 Yes Yes
2020XG1 O C K 2020-12-13.44790 1.000E-05 04:06:24.830 1.500E-01 0.500 F -0.108 0.259 +30° 04' 18.80" 1.000E-01 0.500 F 0.323 -0.352 19.7 R 0.70 0.23 o 691 0.88 Yes Yes
2020XG1 O C K 2020-12-13.45117 1.000E-05 04:06:22.450 1.500E-01 0.500 F -0.108 0.319 +30° 04' 48.60" 1.000E-01 0.500 F 0.323 0.127 19.6 R 0.70 0.13 o 691 0.70 Yes Yes
2020XU5 O C K 2020-12-13.46460 1.000E-05 09:15:03.280 1.500E-01 0.500 F 0.053 0.360 +18° 13' 26.30" 1.000E-01 0.500 F 0.212 -0.315 22.0 R 0.70 0.58 o 691 0.97 Yes Yes
2020XU5 O C K 2020-12-13.47765 1.000E-05 09:15:05.060 1.500E-01 0.500 F 0.053 0.059 +18° 13' 19.90" 1.000E-01 0.500 F 0.212 0.226 21.7 R 0.70 0.28 o 691 0.47 Yes Yes
2020XU5 O C K 2020-12-13.49069 1.000E-05 09:15:06.820 1.500E-01 0.500 F 0.053 -0.511 +18° 13' 12.50" 1.000E-01 0.500 F 0.212 -0.207 20.4 R 0.70 -1.02 o 691 1.11 Yes Yes
2020XY4 O C K 2020-12-13.53174 1.000E-05 07:15:26.000 1.500E-01 0.500 F -0.001 -0.157 +22° 15' 03.80" 1.000E-01 0.500 F 0.329 -0.114 18.5 R 0.70 -2.31 o 691 0.39 Yes No
2020XY4 O C K 2020-12-13.54089 1.000E-05 07:15:23.480 1.500E-01 0.500 F -0.001 0.033 +22° 14' 49.70" 1.000E-01 0.500 F 0.329 -0.159 20.3 R 0.70 -0.50 o 691 0.33 Yes Yes
2020XR O C H 2020-12-14.07350 1.000E-05 22:34:33.040 1.500E-01 0.500 F -0.146 -0.189 -02° 23' 28.00" 1.000E-01 0.500 F 0.438 0.502 20.0 R 0.70 -0.07 o 691 1.08 Yes Yes
2020XR O C H 2020-12-14.07579 1.000E-05 22:34:33.800 1.500E-01 0.500 F -0.146 -0.833 -02° 23' 30.10" 1.000E-01 0.500 F 0.438 -0.119 19.6 R 0.70 -0.47 o 691 1.69 Yes Yes
2020XR O C H 2020-12-14.07922 1.000E-05 22:34:35.060 1.500E-01 0.500 F -0.146 0.021 -02° 23' 32.50" 1.000E-01 0.500 F 0.438 -0.302 20.4 R 0.70 0.33 o 691 0.61 Yes Yes
2020XZ2 O C K 2020-12-14.13813 1.000E-05 03:44:34.700 1.500E-01 0.500 F -0.275 -0.040 -07° 09' 50.90" 1.000E-01 0.500 F 0.215 -0.395 21.2 R 0.70 0.25 o 691 0.81 Yes Yes
2020XZ2 O C K 2020-12-14.14599 1.000E-05 03:44:35.190 1.500E-01 0.500 F -0.275 -0.396 -07° 09' 20.10" 1.000E-01 0.500 F 0.215 -0.032 20.7 R 0.70 -0.25 o 691 0.81 Yes Yes
2020XZ2 O C K 2020-12-14.15384 1.000E-05 03:44:35.720 1.500E-01 0.500 F -0.275 -0.109 -07° 08' 49.40" 1.000E-01 0.500 F 0.215 0.273 20.6 R 0.70 -0.35 o 691 0.60 Yes Yes
2020XE3 O C K 2020-12-14.19398 1.000E-05 03:56:47.040 1.500E-01 0.500 F -0.193 -0.048 +13° 08' 26.00" 1.000E-01 0.500 F 0.121 -0.195 22.0 R 0.70 0.55 o 691 0.41 Yes Yes
2020XE3 O C K 2020-12-14.20463 1.000E-05 03:56:51.770 1.500E-01 0.500 F -0.193 -0.804 +13° 08' 45.70" 1.000E-01 0.500 F 0.121 -0.058 21.3 R 0.70 -0.15 o 691 1.66 Yes Yes
2020XE3 O C K 2020-12-14.21528 1.000E-05 03:56:56.630 1.500E-01 0.500 F -0.193 0.460 +13° 09' 04.80" 1.000E-01 0.500 F 0.121 -0.444 21.8 R 0.70 0.35 o 691 1.29 Yes Yes
2020XJ2 O C K 2020-12-14.23876 1.000E-05 03:45:02.640 1.500E-01 0.500 F -0.083 -0.010 +21° 59' 53.30" 1.000E-01 0.500 F 0.272 -0.148 20.5 R 0.70 0.00 o 691 0.31 Yes Yes
2020XJ2 O C K 2020-12-14.24275 1.000E-05 03:45:04.730 1.500E-01 0.500 F -0.083 -0.109 +21° 59' 37.40" 1.000E-01 0.500 F 0.272 0.327 20.5 R 0.70 0.00 o 691 0.73 Yes Yes
2020XJ2 O C K 2020-12-14.24673 1.000E-05 03:45:06.810 1.500E-01 0.500 F -0.083 -0.270 +21° 59' 20.40" 1.000E-01 0.500 F 0.272 -0.324 o 691 0.89 Yes No
2020XE2 O C K 2020-12-14.25299 1.000E-05 05:34:47.790 1.500E-01 0.500 F -0.096 -0.065 +25° 25' 48.50" 1.000E-01 0.500 F 0.232 -0.126 21.5 R 0.70 0.50 o 691 0.30 Yes Yes
2020XE2 O C K 2020-12-14.25733 1.000E-05 05:34:48.270 1.500E-01 0.500 F -0.096 0.040 +25° 25' 53.60" 1.000E-01 0.500 F 0.232 -0.186 21.4 R 0.70 0.40 o 691 0.40 Yes Yes
2020XE2 O C K 2020-12-14.26167 1.000E-05 05:34:48.730 1.500E-01 0.500 F -0.096 -0.118 +25° 25' 58.90" 1.000E-01 0.500 F 0.232 -0.035 21.2 R 0.70 0.20 o 691 0.26 Yes Yes
2012UK171 O C H 2020-12-14.26782 1.000E-05 07:18:47.400 1.500E-01 0.500 F -0.087 0.296 +17° 03' 34.00" 1.000E-01 0.500 F 0.157 -0.052 18.9 R 0.70 -0.25 o 691 0.61 Yes Yes
2012UK171 O C H 2020-12-14.27194 1.000E-05 07:18:45.560 1.500E-01 0.500 F -0.087 0.246 +17° 03' 30.40" 1.000E-01 0.500 F 0.157 0.124 18.8 R 0.70 -0.35 o 691 0.56 Yes Yes
2012UK171 O C H 2020-12-14.27503 1.000E-05 07:18:44.180 1.500E-01 0.500 F -0.087 0.250 +17° 03' 27.50" 1.000E-01 0.500 F 0.157 0.070 19.3 R 0.70 0.15 o 691 0.52 Yes Yes
2020XL2 O C K 2020-12-14.39395 1.000E-05 04:09:27.120 1.500E-01 0.500 F -0.278 -2.141 +10° 15' 29.80" 1.000E-01 0.500 F 0.096 1.312 22.0 R 0.70 0.59 o 691 4.78 No Yes
2020XL2 O C K 2020-12-14.40578 1.000E-05 04:09:27.240 1.500E-01 0.500 F -0.278 0.194 +10° 16' 19.70" 1.000E-01 0.500 F 0.096 0.978 21.6 R 0.70 0.19 o 691 2.13 Yes Yes
2020XL2 O C K 2020-12-14.41761 1.000E-05 04:09:27.290 1.500E-01 0.500 F -0.278 1.318 +10° 17' 09.00" 1.000E-01 0.500 F 0.096 0.097 22.3 R 0.70 0.89 o 691 2.78 Yes Yes
2020XV2 O C K 2020-12-14.43457 1.000E-05 06:15:52.980 1.500E-01 0.500 F -0.219 -0.373 -20° 28' 38.70" 1.000E-01 0.500 F -0.157 -0.026 20.5 R 0.70 0.84 o 691 0.76 Yes Yes
2020XV2 O C K 2020-12-14.43773 1.000E-05 06:15:54.900 1.500E-01 0.500 F -0.219 0.343 -20° 28' 38.50" 1.000E-01 0.500 F -0.157 0.033 20.0 R 0.70 0.34 o 691 0.70 Yes Yes
2020XV2 O C K 2020-12-14.44089 1.000E-05 06:15:56.750 1.500E-01 0.500 F -0.219 0.053 -20° 28' 37.70" 1.000E-01 0.500 F -0.157 0.680 19.7 R 0.70 0.04 o 691 1.39 Yes Yes
2006RJ1 O C K 2020-12-15.21425 1.000E-05 01:21:04.750 1.500E-01 0.500 F -0.254 -0.296 +05° 15' 51.60" 1.000E-01 0.500 F 0.313 -0.140 19.8 R 0.70 0.02 o 691 0.66 Yes Yes
2006RJ1 O C K 2020-12-15.21901 1.000E-05 01:21:03.280 1.500E-01 0.500 F -0.254 0.005 +05° 15' 46.10" 1.000E-01 0.500 F 0.313 -0.260 19.8 R 0.70 0.01 o 691 0.52 Yes Yes
2006RJ1 O C K 2020-12-15.22377 1.000E-05 01:21:01.800 1.500E-01 0.500 F -0.254 0.130 +05° 15' 41.50" 1.000E-01 0.500 F 0.313 0.523 20.0 R 0.70 0.21 o 691 1.09 Yes Yes
2020XX3 O C K 2020-12-15.23764 1.000E-05 03:39:44.310 1.500E-01 0.500 F -0.159 -0.136 +23° 11' 27.50" 1.000E-01 0.500 F 0.320 -0.365 18.6 R 0.70 -0.25 o 691 0.78 Yes Yes
2020XX3 O C K 2020-12-15.24111 1.000E-05 03:39:42.080 1.500E-01 0.500 F -0.159 0.212 +23° 11' 19.80" 1.000E-01 0.500 F 0.320 -0.002 19.6 R 0.70 0.75 o 691 0.43 Yes Yes
2020XX3 O C K 2020-12-15.24689 1.000E-05 03:39:38.310 1.500E-01 0.500 F -0.159 0.099 +23° 11' 06.00" 1.000E-01 0.500 F 0.320 0.046 18.5 R 0.70 -0.34 o 691 0.22 Yes Yes
2006UL185 O C K 2020-12-15.25273 1.000E-05 00:49:41.800 1.500E-01 0.500 F -0.235 0.108 +24° 47' 11.60" 1.000E-01 0.500 F 0.292 -0.712 21.4 R 0.70 0.34 o 691 1.45 Yes Yes
2006UL185 O C K 2020-12-15.25990 1.000E-05 00:49:40.620 1.500E-01 0.500 F -0.235 0.071 +24° 47' 11.80" 1.000E-01 0.500 F 0.292 -0.278 o 691 0.58 Yes No
2006UL185 O C K 2020-12-15.26707 1.000E-05 00:49:39.460 1.500E-01 0.500 F -0.235 0.267 +24° 47' 11.80" 1.000E-01 0.500 F 0.292 -0.034 20.7 R 0.70 -0.36 o 691 0.54 Yes Yes
2020XU6 O C K 2020-12-15.31150 1.000E-05 07:16:00.120 1.500E-01 0.500 F -0.174 0.071 +10° 35' 35.20" 1.000E-01 0.500 F 0.060 0.128 21.1 R 0.70 0.48 o 691 0.29 Yes Yes
2020XU6 O C K 2020-12-15.31877 1.000E-05 07:16:00.250 1.500E-01 0.500 F -0.174 -0.116 +10° 35' 30.70" 1.000E-01 0.500 F 0.060 0.077 21.3 R 0.70 0.68 o 691 0.28 Yes Yes
2020XU6 O C K 2020-12-15.32605 1.000E-05 07:16:00.410 1.500E-01 0.500 F -0.174 0.151 +10° 35' 26.20" 1.000E-01 0.500 F 0.060 0.039 21.3 R 0.70 0.68 o 691 0.31 Yes Yes
2020XD5 O C K 2020-12-15.33557 1.000E-05 09:47:12.950 1.500E-01 0.500 F 0.041 -0.346 +15° 47' 44.40" 1.000E-01 0.500 F 0.354 -0.171 o 691 0.78 Yes No
2020XD5 O C K 2020-12-15.34241 1.000E-05 09:47:14.140 1.500E-01 0.500 F 0.041 -0.018 +15° 47' 43.90" 1.000E-01 0.500 F 0.354 -0.777 20.3 R 0.70 -0.28 o 691 1.56 Yes Yes
2020XD5 O C K 2020-12-15.34926 1.000E-05 09:47:15.280 1.500E-01 0.500 F 0.041 -0.421 +15° 47' 45.10" 1.000E-01 0.500 F 0.354 0.322 20.8 R 0.70 0.22 o 691 1.06 Yes Yes
2008CH116 O C K 2020-12-15.50988 1.000E-05 13:54:11.330 1.500E-01 0.500 F 0.229 -0.588 +06° 55' 20.00" 1.000E-01 0.500 F 0.232 -0.629 21.4 R 0.70 0.35 o 691 1.74 Yes Yes
2008CH116 O C K 2020-12-15.52404 1.000E-05 13:54:13.880 1.500E-01 0.500 F 0.229 0.035 +06° 55' 17.20" 1.000E-01 0.500 F 0.232 -0.414 21.3 R 0.70 0.25 o 691 0.84 Yes Yes
2008CH116 O C K 2020-12-15.53823 1.000E-05 13:54:16.370 1.500E-01 0.500 F 0.229 -0.275 +06° 55' 14.40" 1.000E-01 0.500 F 0.232 -0.188 20.9 R 0.70 -0.15 o 691 0.67 Yes Yes
2020XF1 O C K 2020-12-16.09396 1.000E-05 02:16:59.400 1.500E-01 0.500 F -0.423 0.274 -16° 59' 23.80" 1.000E-01 0.500 F 0.082 -0.274 20.6 R 0.70 -0.40 o 691 0.80 Yes Yes
2020XF1 O C K 2020-12-16.10702 1.000E-05 02:16:59.800 1.500E-01 0.500 F -0.423 0.349 -17° 00' 50.00" 1.000E-01 0.500 F 0.082 -0.041 21.2 R 0.70 0.20 o 691 0.72 Yes Yes
2020XE3 O C K 2020-12-16.15407 1.000E-05 04:11:04.990 1.500E-01 0.500 F -0.147 0.523 +14° 01' 59.20" 1.000E-01 0.500 F 0.099 -1.431 21.5 R 0.70 -0.12 o 691 3.09 Yes Yes
2020XE3 O C K 2020-12-16.18436 1.000E-05 04:11:16.460 1.500E-01 0.500 F -0.322 -1.622 +14° 02' 46.00" 1.000E-01 0.500 F 0.077 -0.494 21.8 R 0.70 0.18 o 691 3.35 No Yes
2020XK5 O C K 2020-12-16.23432 1.000E-05 04:48:11.140 1.500E-01 0.500 F -0.158 0.116 -17° 34' 23.00" 1.000E-01 0.500 F 0.049 0.468 22.5 R 0.70 0.77 o 691 1.08 Yes Yes
2020XK5 O C K 2020-12-16.26004 1.000E-05 04:48:15.890 1.500E-01 0.500 F -0.158 -0.413 -17° 33' 45.50" 1.000E-01 0.500 F 0.049 0.090 23.5 R 0.70 1.77 o 691 0.91 Yes Yes
2010LE152 O C K 2020-12-16.32221 1.000E-05 04:41:16.250 1.500E-01 0.500 F -0.167 -0.333 +29° 21' 30.20" 1.000E-01 0.500 F 0.371 -0.515 21.7 R 0.70 0.45 o 691 1.24 Yes Yes
2010LE152 O C K 2020-12-16.33151 1.000E-05 04:41:14.780 1.500E-01 0.500 F -0.167 0.136 +29° 21' 39.80" 1.000E-01 0.500 F 0.371 0.221 21.4 R 0.70 0.15 o 691 0.52 Yes Yes
2010LE152 O C K 2020-12-16.34082 1.000E-05 04:41:13.260 1.500E-01 0.500 F -0.167 -0.040 +29° 21' 48.40" 1.000E-01 0.500 F 0.371 -0.036 21.7 R 0.70 0.45 o 691 0.11 Yes Yes
2020WF3 O C K 2020-12-16.35128 1.000E-05 04:08:40.320 1.500E-01 0.500 F -0.318 0.052 +10° 54' 47.30" 1.000E-01 0.500 F 0.113 0.476 20.2 R 0.70 -0.54 o 691 0.97 Yes Yes
2020WF3 O C K 2020-12-16.35723 1.000E-05 04:08:39.640 1.500E-01 0.500 F -0.318 0.192 +10° 54' 19.60" 1.000E-01 0.500 F 0.113 0.004 20.5 R 0.70 -0.24 o 691 0.39 Yes Yes
2020WF3 O C K 2020-12-16.36319 1.000E-05 04:08:39.000 1.500E-01 0.500 F -0.318 0.893 +10° 53' 52.50" 1.000E-01 0.500 F 0.113 0.182 20.5 R 0.70 -0.24 o 691 1.85 Yes Yes
2020WJ4 O C H 2020-12-16.37691 1.000E-05 09:15:49.970 1.500E-01 0.500 F 0.057 0.111 +16° 49' 34.50" 1.000E-01 0.500 F 0.190 -0.071 20.3 R 0.70 0.15 o 691 0.27 Yes Yes
2020WJ4 O C H 2020-12-16.38040 1.000E-05 09:15:50.510 1.500E-01 0.500 F 0.057 -0.066 +16° 49' 38.10" 1.000E-01 0.500 F 0.190 0.177 20.0 R 0.70 -0.15 o 691 0.38 Yes Yes
2020WJ4 O C H 2020-12-16.38564 1.000E-05 09:15:51.310 1.500E-01 0.500 F 0.057 -0.478 +16° 49' 42.90" 1.000E-01 0.500 F 0.190 -0.052 20.1 R 0.70 -0.05 o 691 0.97 Yes Yes
2020VT O C K 2020-12-16.44020 1.000E-05 06:10:22.940 1.500E-01 0.500 F -0.146 0.012 -12° 12' 34.60" 1.000E-01 0.500 F -0.040 0.373 20.5 R 0.70 -0.17 o 691 0.77 Yes Yes
2020VT O C K 2020-12-16.44610 1.000E-05 06:10:24.830 1.500E-01 0.500 F -0.159 0.355 -12° 12' 33.30" 1.000E-01 0.500 F -0.052 0.051 20.4 R 0.70 -0.27 o 691 0.75 Yes Yes
2020VT O C K 2020-12-16.45200 1.000E-05 06:10:26.670 1.500E-01 0.500 F -0.159 -0.126 -12° 12' 31.10" 1.000E-01 0.500 F -0.052 0.592 20.2 R 0.70 -0.47 o 691 1.24 Yes Yes
1999RM45 O C K 2020-12-16.46138 1.000E-05 09:55:18.410 1.500E-01 0.500 F 0.159 0.020 -00° 02' 32.50" 1.000E-01 0.500 F 0.173 -0.055 22.8 R 0.70 0.69 o 691 0.12 Yes Yes
1999RM45 O C K 2020-12-16.47880 1.000E-05 09:55:19.350 1.500E-01 0.500 F 0.159 0.086 -00° 02' 42.50" 1.000E-01 0.500 F 0.173 -0.040 22.9 R 0.70 0.79 o 691 0.19 Yes Yes
1999RM45 O C K 2020-12-16.49622 1.000E-05 09:55:20.270 1.500E-01 0.500 F 0.159 -0.140 -00° 02' 52.70" 1.000E-01 0.500 F 0.173 -0.226 22.7 R 0.70 0.59 o 691 0.53 Yes Yes
2016BP14 O C K 2020-12-16.51427 1.000E-05 11:45:16.940 1.500E-01 0.500 F 0.347 0.117 -02° 33' 21.30" 1.000E-01 0.500 F 0.113 0.112 21.6 R 0.70 0.20 o 691 0.32 Yes Yes
2016BP14 O C K 2020-12-16.52853 1.000E-05 11:45:15.800 1.500E-01 0.500 F 0.347 0.412 -02° 33' 12.40" 1.000E-01 0.500 F 0.113 0.192 o 691 0.92 Yes No
2016BP14 O C K 2020-12-16.54279 1.000E-05 11:45:14.620 1.500E-01 0.500 F 0.347 0.137 -02° 33' 03.60" 1.000E-01 0.500 F 0.113 0.166 21.7 R 0.70 0.30 o 691 0.43 Yes Yes
2006UL185 O C K 2020-12-17.13707 1.000E-05 00:45:00.440 1.500E-01 0.500 F -0.196 -0.138 +24° 47' 46.40" 1.000E-01 0.500 F 0.291 -0.127 21.9 R 0.70 0.74 o 691 0.38 Yes Yes
2020GN3 O C K 2020-12-17.14206 1.000E-05 23:37:32.710 1.500E-01 0.500 F -0.127 -0.791 +01° 10' 34.60" 1.000E-01 0.500 F 0.276 -0.203 21.8 R 0.70 0.44 o 691 1.68 Yes Yes
2016NF O C K 2020-12-17.15132 1.000E-05 22:49:52.450 1.500E-01 0.500 F -0.033 -0.874 -00° 43' 24.40" 1.000E-01 0.500 F 0.311 0.905 19.8 R 0.70 -0.39 o 691 2.53 Yes Yes
2020GN3 O C K 2020-12-17.15988 1.000E-05 23:37:36.260 1.500E-01 0.500 F -0.080 1.086 +01° 11' 03.00" 1.000E-01 0.500 F 0.354 1.252 21.7 R 0.70 0.34 o 691 3.22 No Yes
2016NF O C K 2020-12-17.16913 1.000E-05 22:49:57.170 1.500E-01 0.500 F -0.033 0.608 -00° 43' 02.50" 1.000E-01 0.500 F 0.311 -0.128 20.7 R 0.70 0.51 o 691 1.25 Yes Yes
2006UL185 O C K 2020-12-17.17271 1.000E-05 00:44:55.120 1.500E-01 0.500 F -0.196 -0.049 +24° 47' 47.00" 1.000E-01 0.500 F 0.291 0.179 o 691 0.37 Yes No
2020GN3 O C K 2020-12-17.17770 1.000E-05 23:37:39.600 1.500E-01 0.500 F -0.080 -0.191 +01° 11' 28.70" 1.000E-01 0.500 F 0.354 0.091 21.2 R 0.70 -0.16 o 691 0.43 Yes Yes
2016NF O C K 2020-12-17.18695 1.000E-05 22:50:01.720 1.500E-01 0.500 F -0.033 -0.580 -00° 42' 39.40" 1.000E-01 0.500 F 0.311 0.025 20.6 R 0.70 0.41 o 691 1.17 Yes Yes
2007UY1 O C K 2020-12-17.19893 1.000E-05 01:24:42.620 1.500E-01 0.500 F -0.233 0.055 +14° 06' 30.50" 1.000E-01 0.500 F 0.350 -0.190 22.0 R 0.70 0.40 o 691 0.40 Yes Yes
2006RJ1 O C H 2020-12-17.20819 1.000E-05 01:11:33.350 1.500E-01 0.500 F -0.215 0.054 +04° 39' 52.00" 1.000E-01 0.500 F 0.258 -0.217 20.1 R 0.70 0.20 o 691 0.45 Yes Yes
2007UY1 O C K 2020-12-17.21805 1.000E-05 01:24:43.400 1.500E-01 0.500 F -0.233 -0.130 +14° 06' 29.60" 1.000E-01 0.500 F 0.350 -0.122 22.3 R 0.70 0.70 o 691 0.36 Yes Yes
2006RJ1 O C H 2020-12-17.22731 1.000E-05 01:11:27.650 1.500E-01 0.500 F -0.215 -0.211 +04° 39' 31.80" 1.000E-01 0.500 F 0.258 -0.017 20.4 R 0.70 0.50 o 691 0.43 Yes Yes
2007UY1 O C K 2020-12-17.23715 1.000E-05 01:24:44.230 1.500E-01 0.500 F -0.233 0.161 +14° 06' 28.50" 1.000E-01 0.500 F 0.350 -0.169 21.7 R 0.70 0.10 o 691 0.47 Yes Yes
2006RJ1 O C H 2020-12-17.24641 1.000E-05 01:11:22.010 1.500E-01 0.500 F -0.215 -0.180 +04° 39' 11.30" 1.000E-01 0.500 F 0.258 -0.102 19.6 R 0.70 -0.31 o 691 0.42 Yes Yes
2020PD1 O C 2020-12-17.24977 1.000E-05 03:21:37.430 1.500E-01 0.500 F -0.281 -0.402 -18° 10' 09.90" 1.000E-01 0.500 F 0.106 -0.044 20.1 V 0.70 -0.21 o 691 0.81 Yes Yes
2020WD1 O C K 2020-12-17.25642 1.000E-05 03:27:53.620 1.500E-01 0.500 F -0.253 0.128 -06° 07' 33.90" 1.000E-01 0.500 F 0.036 -0.069 o 691 0.29 Yes No
2020PD1 O C 2020-12-17.26304 1.000E-05 03:21:38.410 1.500E-01 0.500 F -0.281 -0.462 -18° 09' 59.90" 1.000E-01 0.500 F 0.106 0.128 20.6 V 0.70 0.29 o 691 0.96 Yes Yes
2020WD1 O C K 2020-12-17.26970 1.000E-05 03:27:52.960 1.500E-01 0.500 F -0.253 0.260 -06° 07' 25.40" 1.000E-01 0.500 F 0.036 -0.206 o 691 0.67 Yes No
2020PD1 O C 2020-12-17.27632 1.000E-05 03:21:39.410 1.500E-01 0.500 F -0.281 -0.277 -18° 09' 50.10" 1.000E-01 0.500 F 0.106 0.063 20.2 V 0.70 -0.11 o 691 0.57 Yes Yes
2020WD1 O C K 2020-12-17.28292 1.000E-05 03:27:52.290 1.500E-01 0.500 F -0.253 0.064 -06° 07' 16.60" 1.000E-01 0.500 F 0.036 -0.051 o 691 0.17 Yes No
2003YJ O C 2020-12-17.29592 1.000E-05 03:33:59.710 1.500E-01 0.500 F -0.196 0.351 -02° 51' 24.10" 1.000E-01 0.500 F 0.249 0.142 18.2 V 0.70 0.12 o 691 0.76 Yes Yes
2020OC8 O C H 2020-12-17.29592 1.000E-05 03:37:51.410 1.500E-01 0.500 F -0.207 0.442 -03° 03' 52.90" 1.000E-01 0.500 F 0.283 -0.218 18.7 R 0.70 -0.36 o 691 0.99 Yes Yes
2020VX1 O C K 2020-12-17.29712 1.000E-05 03:50:08.230 1.500E-01 0.500 F -0.225 -0.030 +03° 33' 48.80" 1.000E-01 0.500 F 0.180 -0.263 21.3 R 0.70 0.44 o 691 0.54 Yes Yes
2020XL2 O C K 2020-12-17.30177 1.000E-05 04:09:57.000 1.500E-01 0.500 F -0.305 -0.192 +13° 27' 52.40" 1.000E-01 0.500 F 0.112 -0.414 21.7 R 0.70 0.06 o 691 1.06 Yes Yes
2003YJ O C 2020-12-17.31344 1.000E-05 03:33:53.880 1.500E-01 0.500 F -0.196 0.099 -02° 49' 38.30" 1.000E-01 0.500 F 0.249 -0.074 18.2 V 0.70 0.12 o 691 0.25 Yes Yes
2020OC8 O C H 2020-12-17.31344 1.000E-05 03:37:54.410 1.500E-01 0.500 F -0.207 -0.152 -03° 03' 25.80" 1.000E-01 0.500 F 0.283 -0.410 18.7 R 0.70 -0.36 o 691 0.88 Yes Yes
2020XL2 O C K 2020-12-17.31928 1.000E-05 04:09:56.980 1.500E-01 0.500 F -0.305 -0.415 +13° 28' 56.60" 1.000E-01 0.500 F 0.112 -0.121 22.4 R 0.70 0.76 o 691 1.02 Yes Yes
2003YJ O C 2020-12-17.33098 1.000E-05 03:33:48.070 1.500E-01 0.500 F -0.196 -0.109 -02° 47' 52.10" 1.000E-01 0.500 F 0.249 -0.025 18.5 V 0.70 0.42 o 691 0.22 Yes Yes
2020OC8 O C H 2020-12-17.33098 1.000E-05 03:37:57.470 1.500E-01 0.500 F -0.207 -0.087 -03° 02' 58.20" 1.000E-01 0.500 F 0.283 -0.144 18.9 R 0.70 -0.16 o 691 0.34 Yes Yes
2020VX1 O C K 2020-12-17.33217 1.000E-05 03:50:16.400 1.500E-01 0.500 F -0.225 0.082 +03° 34' 38.60" 1.000E-01 0.500 F 0.180 -0.026 21.2 R 0.70 0.34 o 691 0.17 Yes Yes
2020XL2 O C K 2020-12-17.33682 1.000E-05 04:09:57.010 1.500E-01 0.500 F -0.305 -0.114 +13° 30' 00.40" 1.000E-01 0.500 F 0.112 -0.189 21.5 R 0.70 -0.15 o 691 0.51 Yes Yes
2016GN220 O C K 2020-12-17.34873 1.000E-05 04:40:54.260 1.500E-01 0.500 F -0.276 -0.478 +10° 44' 10.00" 1.000E-01 0.500 F 0.224 0.144 o 691 1.05 Yes No
2016GN220 O C K 2020-12-17.36547 1.000E-05 04:40:53.140 1.500E-01 0.500 F -0.276 0.229 +10° 44' 11.30" 1.000E-01 0.500 F 0.224 -0.190 o 691 0.61 Yes No
2016GN220 O C K 2020-12-17.38216 1.000E-05 04:40:51.960 1.500E-01 0.500 F -0.276 -0.043 +10° 44' 13.40" 1.000E-01 0.500 F 0.224 0.288 o 691 0.59 Yes No
2017BL31 O C K 2020-12-17.40657 1.000E-05 07:42:22.520 1.500E-01 0.500 F 0.019 -0.010 +17° 13' 12.00" 1.000E-01 0.500 F 0.252 -0.139 20.5 R 0.70 0.03 o 691 0.28 Yes Yes
2017BL31 O C K 2020-12-17.41867 1.000E-05 07:42:21.460 1.500E-01 0.500 F 0.019 -0.940 +17° 13' 21.50" 1.000E-01 0.500 F 0.252 -0.047 19.9 R 0.70 -0.57 o 691 1.89 Yes Yes
2017BL31 O C K 2020-12-17.43106 1.000E-05 07:42:20.500 1.500E-01 0.500 F 0.019 -0.093 +17° 13' 31.30" 1.000E-01 0.500 F 0.252 0.128 20.7 R 0.70 0.23 o 691 0.32 Yes Yes
2020WH2 O C K 2020-12-17.44806 1.000E-05 09:27:18.960 1.500E-01 0.500 F 0.202 -0.143 +08° 09' 31.10" 1.000E-01 0.500 F 0.216 -0.017 19.6 R 0.70 0.08 o 691 0.29 Yes Yes
2020WH2 O C K 2020-12-17.46965 1.000E-05 09:27:14.160 1.500E-01 0.500 F 0.202 -0.047 +08° 07' 44.40" 1.000E-01 0.500 F 0.216 -0.024 20.1 R 0.70 0.58 o 691 0.11 Yes Yes
2020WH2 O C K 2020-12-17.49126 1.000E-05 09:27:09.350 1.500E-01 0.500 F 0.202 -0.040 +08° 05' 57.60" 1.000E-01 0.500 F 0.216 -0.008 20.2 R 0.70 0.68 o 691 0.08 Yes Yes
2020XF O C K 2020-12-19.12547 1.000E-05 00:44:30.660 1.500E-01 0.500 F -0.043 0.076 +49° 11' 40.30" 1.000E-01 0.500 F 0.225 0.078 21.9 R 0.70 0.88 o 691 0.22 Yes Yes
2020WF2 O C K 2020-12-19.13219 1.000E-05 00:48:42.050 1.500E-01 0.500 F 0.019 -0.767 +46° 09' 22.70" 1.000E-01 0.500 F 0.225 0.274 o 691 1.88 Yes No
2020XF O C K 2020-12-19.15579 1.000E-05 00:44:26.780 1.500E-01 0.500 F -0.043 -0.259 +49° 11' 37.40" 1.000E-01 0.500 F 0.225 -0.300 21.2 R 0.70 0.17 o 691 0.80 Yes Yes
2020WF2 O C K 2020-12-19.16250 1.000E-05 00:48:42.840 1.500E-01 0.500 F 0.019 0.646 +46° 11' 26.10" 1.000E-01 0.500 F 0.225 0.397 o 691 1.75 Yes No
2020WF2 O C K 2020-12-19.19283 1.000E-05 00:48:43.500 1.500E-01 0.500 F 0.019 0.308 +46° 13' 27.50" 1.000E-01 0.500 F 0.225 -0.843 o 691 2.06 Yes No
2020XM1 O C K 2020-12-19.21675 1.000E-05 23:33:01.330 1.500E-01 0.500 F -0.098 0.995 +21° 31' 31.80" 1.000E-01 0.500 F 0.231 0.281 21.5 R 0.70 -0.09 o 691 2.32 Yes Yes
2020XM1 O C K 2020-12-19.25529 1.000E-05 23:33:02.640 1.500E-01 0.500 F -0.098 0.781 +21° 33' 14.60" 1.000E-01 0.500 F 0.231 0.026 22.5 R 0.70 0.91 o 691 1.76 Yes Yes
2016JU33 O C H 2020-12-19.29207 1.000E-05 02:09:12.810 1.500E-01 0.500 F -0.259 0.559 +23° 01' 37.50" 1.000E-01 0.500 F 0.282 -0.216 20.5 R 0.70 0.64 o 691 1.20 Yes Yes
2020XM O C K 2020-12-19.31001 1.000E-05 03:06:27.030 1.500E-01 0.500 F -0.173 -0.203 +28° 15' 37.10" 1.000E-01 0.500 F 0.267 0.113 21.6 R 0.70 0.27 o 691 0.48 Yes Yes
2016JU33 O C H 2020-12-19.32130 1.000E-05 02:09:08.180 1.500E-01 0.500 F -0.259 -0.069 +23° 00' 59.10" 1.000E-01 0.500 F 0.282 -0.035 20.9 R 0.70 1.04 o 691 0.16 Yes Yes
2020XM O C K 2020-12-19.33945 1.000E-05 03:06:21.990 1.500E-01 0.500 F -0.173 0.633 +28° 17' 03.40" 1.000E-01 0.500 F 0.267 -0.620 21.4 R 0.70 0.07 o 691 1.84 Yes Yes
2016JU33 O C H 2020-12-19.35074 1.000E-05 02:09:03.600 1.500E-01 0.500 F -0.259 -0.329 +23° 00' 19.70" 1.000E-01 0.500 F 0.282 -0.391 20.6 R 0.70 0.74 o 691 1.03 Yes Yes
2020OC8 O C H 2020-12-19.37099 1.000E-05 03:44:05.060 1.500E-01 0.500 F -0.323 0.434 -02° 10' 43.20" 1.000E-01 0.500 F 0.257 -0.195 19.3 R 0.70 0.14 o 691 0.96 Yes Yes
2020OC8 O C H 2020-12-19.39480 1.000E-05 03:44:09.110 1.500E-01 0.500 F -0.323 0.638 -02° 10' 06.60" 1.000E-01 0.500 F 0.257 0.074 19.0 R 0.70 -0.16 o 691 1.29 Yes Yes
2020OC7 O C K 2020-12-19.42154 1.000E-05 08:52:59.440 1.500E-01 0.500 F 0.025 -0.729 -07° 36' 05.50" 1.000E-01 0.500 F 0.062 0.522 19.9 R 0.70 -0.66 o 691 1.80 Yes Yes
2002LG3 O C 2020-12-19.42604 1.000E-05 08:52:08.450 1.500E-01 0.500 F 0.217 -0.434 -04° 04' 25.00" 1.000E-01 0.500 F 0.083 -0.164 19.8 V 0.70 0.02 o 691 0.94 Yes Yes
2020OC7 O C K 2020-12-19.42978 1.000E-05 08:52:59.180 1.500E-01 0.500 F 0.025 0.050 -07° 35' 57.30" 1.000E-01 0.500 F 0.062 0.103 20.7 R 0.70 0.14 o 691 0.23 Yes Yes
2002LG3 O C 2020-12-19.43428 1.000E-05 08:52:06.240 1.500E-01 0.500 F 0.217 -0.022 -04° 04' 11.70" 1.000E-01 0.500 F 0.083 -0.381 19.7 V 0.70 -0.08 o 691 0.77 Yes Yes
2020OC7 O C K 2020-12-19.43802 1.000E-05 08:52:58.870 1.500E-01 0.500 F 0.025 0.091 -07° 35' 48.60" 1.000E-01 0.500 F 0.062 0.174 20.2 R 0.70 -0.36 o 691 0.40 Yes Yes
2002LG3 O C 2020-12-19.44252 1.000E-05 08:52:03.960 1.500E-01 0.500 F 0.076 -0.522 -04° 03' 57.90" 1.000E-01 0.500 F 0.127 -0.145 19.9 V 0.70 0.12 o 691 1.10 Yes Yes
2020WH2 O C H 2020-12-19.44479 1.000E-05 09:20:10.330 1.500E-01 0.559 F 0.219 -0.094 +05° 27' 23.80" 1.000E-01 0.559 F 0.229 0.116 19.8 R 0.70 0.29 o 691 0.27 Yes Yes
2020WH2 O C 2020-12-19.44479 1.000E-05 09:20:10.330 1.500E-01 0.559 F 0.219 -0.094 +05° 27' 23.90" 1.000E-01 0.559 F 0.229 0.216 20.2 V 0.70 0.29 o 691 0.42 Yes Yes
2020WJ4 O C H 2020-12-19.44843 1.000E-05 09:24:13.530 1.500E-01 0.500 F 0.124 0.152 +17° 39' 52.50" 1.000E-01 0.500 F 0.225 0.881 20.1 R 0.70 0.03 o 691 1.81 Yes Yes
2020WH2 O C 2020-12-19.44996 1.000E-05 09:20:09.170 1.500E-01 0.559 F 0.219 -0.128 +05° 26' 58.40" 1.000E-01 0.559 F 0.229 -0.502 20.2 V 0.70 0.29 o 691 0.93 Yes Yes
2020WH2 O C H 2020-12-19.44996 1.000E-05 09:20:09.190 1.500E-01 0.559 F 0.219 0.171 +05° 26' 58.50" 1.000E-01 0.559 F 0.229 -0.402 19.7 R 0.70 0.19 o 691 0.79 Yes Yes
2020WJ4 O C H 2020-12-19.45360 1.000E-05 09:24:14.310 1.500E-01 0.500 F 0.124 0.112 +17° 39' 57.20" 1.000E-01 0.500 F 0.225 0.287 20.3 R 0.70 0.23 o 691 0.62 Yes Yes
2020WH2 O C 2020-12-19.45514 1.000E-05 09:20:07.990 1.500E-01 0.559 F 0.219 -0.426 +05° 26' 33.40" 1.000E-01 0.559 F 0.229 -0.673 20.0 V 0.70 0.09 o 691 1.43 Yes Yes
2020WJ4 O C H 2020-12-19.45879 1.000E-05 09:24:15.120 1.500E-01 0.500 F 0.124 0.458 +17° 40' 01.60" 1.000E-01 0.500 F 0.225 -0.620 20.2 R 0.70 0.13 o 691 1.56 Yes Yes
2020XU6 O C H 2020-12-19.46234 1.000E-05 07:17:35.790 1.500E-01 0.500 F -0.117 0.037 +09° 51' 56.80" 1.000E-01 0.500 F 0.039 0.206 21.1 R 0.70 0.78 o 691 0.42 Yes Yes
2020XU6 O C H 2020-12-19.46529 1.000E-05 07:17:35.830 1.500E-01 0.500 F -0.117 0.011 +09° 51' 54.60" 1.000E-01 0.500 F 0.039 -0.066 20.9 R 0.70 0.58 o 691 0.14 Yes Yes
2020XU6 O C H 2020-12-19.46824 1.000E-05 07:17:35.860 1.500E-01 0.500 F -0.117 -0.166 +09° 51' 52.90" 1.000E-01 0.500 F 0.039 0.162 20.8 R 0.70 0.48 o 691 0.47 Yes Yes
2012US9 O C K 2020-12-20.06564 1.000E-05 22:34:12.790 1.500E-01 0.500 F -0.009 0.260 +26° 37' 02.90" 1.000E-01 0.500 F 0.164 0.070 21.7 R 0.70 0.38 o 691 0.56 Yes Yes
2007SR1 O C K 2020-12-20.07656 1.000E-05 22:37:24.590 1.500E-01 0.500 F -0.009 -0.353 +26° 25' 06.40" 1.000E-01 0.500 F 0.164 0.636 o 691 1.47 Yes No
2012US9 O C K 2020-12-20.09250 1.000E-05 22:34:12.810 1.500E-01 0.500 F -0.009 0.171 +26° 36' 49.70" 1.000E-01 0.500 F 0.164 0.105 21.7 R 0.70 0.38 o 691 0.41 Yes Yes
2007SR1 O C K 2020-12-20.10342 1.000E-05 22:37:23.750 1.500E-01 0.500 F -0.009 0.211 +26° 24' 57.10" 1.000E-01 0.500 F 0.164 0.233 22.0 R 0.70 1.02 o 691 0.59 Yes Yes
2012US9 O C K 2020-12-20.11825 1.000E-05 22:34:12.850 1.500E-01 0.500 F -0.009 -0.047 +26° 36' 36.70" 1.000E-01 0.500 F 0.164 0.087 21.7 R 0.70 0.38 o 691 0.20 Yes Yes
2007SR1 O C K 2020-12-20.12917 1.000E-05 22:37:22.940 1.500E-01 0.500 F -0.009 0.462 +26° 24' 48.80" 1.000E-01 0.500 F 0.164 0.583 21.4 R 0.70 0.42 o 691 1.47 Yes Yes
2007UY1 O C K 2020-12-20.14961 1.000E-05 01:27:34.690 1.500E-01 0.500 F -0.192 0.038 +14° 06' 55.80" 1.000E-01 0.500 F 0.427 -0.401 22.0 R 0.70 0.25 o 691 0.81 Yes Yes
2020OS7 O C K 2020-12-20.16287 1.000E-05 01:12:27.850 1.500E-01 0.500 F -0.190 0.116 -00° 43' 02.00" 1.000E-01 0.500 F 0.195 0.075 o 691 0.28 Yes No
2020QQ6 O C H 2020-12-20.17298 1.000E-05 01:39:56.220 1.500E-01 0.500 F -0.421 0.226 +14° 05' 33.90" 1.000E-01 0.500 F 0.200 0.167 20.5 R 0.70 0.34 o 691 0.56 Yes Yes
2007UY1 O C K 2020-12-20.17509 1.000E-05 01:27:35.920 1.500E-01 0.500 F -0.192 -0.496 +14° 06' 56.70" 1.000E-01 0.500 F 0.427 -0.305 o 691 1.17 Yes No
2020OS7 O C K 2020-12-20.19054 1.000E-05 01:12:33.880 1.500E-01 0.500 F -0.190 0.056 -00° 42' 18.60" 1.000E-01 0.500 F 0.195 -0.027 21.2 R 0.70 0.10 o 691 0.13 Yes Yes
2020QQ6 O C H 2020-12-20.21383 1.000E-05 01:40:03.110 1.500E-01 0.500 F -0.421 -0.019 +14° 05' 54.40" 1.000E-01 0.500 F 0.200 -0.035 20.6 R 0.70 0.44 o 691 0.08 Yes Yes
2007UY1 O C K 2020-12-20.21637 1.000E-05 01:27:38.070 1.500E-01 0.500 F -0.192 0.283 +14° 06' 57.70" 1.000E-01 0.500 F 0.427 -0.257 22.1 R 0.70 0.35 o 691 0.77 Yes Yes
2020OS7 O C K 2020-12-20.23487 1.000E-05 01:12:43.580 1.500E-01 0.500 F -0.190 0.192 -00° 41' 08.90" 1.000E-01 0.500 F 0.195 -0.010 21.9 R 0.70 0.80 o 691 0.39 Yes Yes
2020QQ6 O C H 2020-12-20.24499 1.000E-05 01:40:08.390 1.500E-01 0.500 F -0.421 -0.191 +14° 06' 09.70" 1.000E-01 0.500 F 0.200 -0.388 20.3 R 0.70 0.14 o 691 0.87 Yes Yes
2020VX5 O C K 2020-12-20.25580 1.000E-05 02:06:26.530 1.500E-01 0.500 F -0.115 -0.039 +30° 14' 59.40" 1.000E-01 0.500 F 0.225 0.393 o 691 0.80 Yes No
2020VX5 O C K 2020-12-20.29554 1.000E-05 02:06:34.560 1.500E-01 0.500 F -0.115 0.588 +30° 15' 01.80" 1.000E-01 0.500 F 0.225 -0.631 o 691 1.85 Yes No
2020VX5 O C K 2020-12-20.32616 1.000E-05 02:06:40.770 1.500E-01 0.500 F -0.115 0.330 +30° 15' 04.30" 1.000E-01 0.500 F 0.225 -0.306 o 691 0.97 Yes No
2016JU33 O C 2020-12-21.15678 1.000E-05 02:04:38.710 1.500E-01 0.500 F -0.265 -0.343 +22° 21' 40.50" 1.000E-01 0.500 F 0.212 0.179 19.8 V 0.70 -0.47 o 691 0.78 Yes Yes
2016JU33 O C 2020-12-21.17908 1.000E-05 02:04:35.250 1.500E-01 0.500 F -0.265 0.077 +22° 21' 11.20" 1.000E-01 0.500 F 0.212 0.179 19.9 V 0.70 -0.37 o 691 0.39 Yes Yes
2016JU33 O C 2020-12-21.21732 1.000E-05 02:04:29.260 1.500E-01 0.500 F -0.265 -0.310 +22° 20' 20.40" 1.000E-01 0.500 F 0.212 0.081 19.9 V 0.70 -0.37 o 691 0.64 Yes Yes
2020WD1 O C K 2020-12-21.26144 1.000E-05 03:26:29.830 1.500E-01 0.500 F -0.171 0.258 -05° 17' 09.60" 1.000E-01 0.500 F 0.107 -0.138 20.4 R 0.70 -0.47 o 691 0.59 Yes Yes
2020WD1 O C K 2020-12-21.27856 1.000E-05 03:26:29.280 1.500E-01 0.500 F -0.171 0.324 -05° 16' 54.50" 1.000E-01 0.500 F 0.107 -0.081 20.3 R 0.70 -0.57 o 691 0.67 Yes Yes
2020WD1 O C K 2020-12-21.29568 1.000E-05 03:26:28.750 1.500E-01 0.500 F -0.171 0.391 -05° 16' 39.20" 1.000E-01 0.500 F 0.107 0.111 20.9 R 0.70 0.03 o 691 0.82 Yes Yes
2020WF3 O C K 2020-12-21.30636 1.000E-05 04:01:41.670 1.500E-01 0.500 F -0.111 0.419 +05° 12' 39.60" 1.000E-01 0.500 F 0.127 0.455 20.5 R 0.70 -0.64 o 691 1.26 Yes Yes
2020VX1 O C K 2020-12-21.31760 1.000E-05 04:05:16.470 1.500E-01 0.500 F -0.137 0.816 +05° 03' 27.40" 1.000E-01 0.500 F 0.166 -0.776 o 691 2.28 Yes No
2020WF3 O C K 2020-12-21.33137 1.000E-05 04:01:39.580 1.500E-01 0.500 F -0.111 0.108 +05° 11' 05.40" 1.000E-01 0.500 F 0.127 -0.042 21.7 R 0.70 0.56 o 691 0.23 Yes Yes
2020VX1 O C K 2020-12-21.34260 1.000E-05 04:05:21.380 1.500E-01 0.500 F -0.137 0.130 +05° 03' 59.30" 1.000E-01 0.500 F 0.166 -0.087 21.5 R 0.70 0.37 o 691 0.32 Yes Yes
2020WF3 O C K 2020-12-21.35639 1.000E-05 04:01:37.600 1.500E-01 0.500 F -0.111 0.776 +05° 09' 31.90" 1.000E-01 0.500 F 0.127 0.165 20.8 R 0.70 -0.34 o 691 1.61 Yes Yes
2020VX1 O C K 2020-12-21.36761 1.000E-05 04:05:26.390 1.500E-01 0.500 F -0.137 0.503 +05° 04' 30.70" 1.000E-01 0.500 F 0.166 0.161 22.1 R 0.70 0.97 o 691 1.11 Yes Yes
2020XJ O C K 2020-12-21.37578 1.000E-05 04:59:43.220 1.500E-01 0.500 F -0.098 0.435 +07° 01' 21.40" 1.000E-01 0.500 F 0.196 0.135 21.7 R 0.70 0.18 o 691 0.95 Yes Yes
2020XV4 O C K 2020-12-21.38775 1.000E-05 05:23:32.870 1.500E-01 0.500 F -0.005 0.084 +07° 51' 09.30" 1.000E-01 0.500 F 0.165 -0.077 21.1 R 0.70 0.24 o 691 0.23 Yes Yes
2020XJ O C K 2020-12-21.39138 1.000E-05 04:59:45.370 1.500E-01 0.500 F -0.098 -0.023 +07° 00' 33.30" 1.000E-01 0.500 F 0.196 -0.300 21.8 R 0.70 0.28 o 691 0.63 Yes Yes
2020XV4 O C K 2020-12-21.40336 1.000E-05 05:23:31.830 1.500E-01 0.500 F -0.005 -0.028 +07° 52' 01.40" 1.000E-01 0.500 F 0.165 -0.220 20.9 R 0.70 0.04 o 691 0.46 Yes Yes
2020XV4 O C K 2020-12-21.41895 1.000E-05 05:23:30.840 1.500E-01 0.500 F -0.005 -0.008 +07° 52' 53.70" 1.000E-01 0.500 F 0.165 0.118 20.7 R 0.70 -0.16 o 691 0.24 Yes Yes
2020OC7 O C H 2020-12-21.42647 1.000E-05 08:51:52.080 1.500E-01 0.500 F -0.009 -0.068 -06° 59' 43.50" 1.000E-01 0.500 F -0.029 0.335 20.8 R 0.70 0.28 o 691 0.69 Yes Yes
2020OC7 O C H 2020-12-21.43127 1.000E-05 08:51:51.860 1.500E-01 0.500 F -0.009 -0.122 -06° 59' 38.30" 1.000E-01 0.500 F -0.029 0.111 20.6 R 0.70 0.08 o 691 0.33 Yes Yes
2020OC7 O C H 2020-12-21.43607 1.000E-05 08:51:51.650 1.500E-01 0.500 F -0.009 -0.026 -06° 59' 32.90" 1.000E-01 0.500 F -0.029 0.084 20.7 R 0.70 0.18 o 691 0.18 Yes Yes
1999RM45 O C K 2020-12-21.44824 1.000E-05 09:59:50.510 1.500E-01 0.500 F 0.073 0.274 -00° 50' 15.70" 1.000E-01 0.500 F 0.162 -0.088 21.3 R 0.70 -0.57 o 691 0.58 Yes Yes
2020MZ3 O C K 2020-12-21.47232 1.000E-05 09:58:53.340 1.500E-01 0.500 F 0.102 0.008 +08° 52' 06.90" 1.000E-01 0.500 F 0.085 0.061 21.4 R 0.70 0.08 o 691 0.12 Yes Yes
1999RM45 O C K 2020-12-21.48019 1.000E-05 09:59:52.080 1.500E-01 0.500 F 0.073 0.133 -00° 50' 34.30" 1.000E-01 0.500 F 0.162 -0.377 21.6 R 0.70 -0.27 o 691 0.80 Yes Yes
2020MZ3 O C K 2020-12-21.50428 1.000E-05 09:58:51.930 1.500E-01 0.500 F 0.102 0.464 +08° 52' 22.30" 1.000E-01 0.500 F 0.085 -0.519 20.9 R 0.70 -0.42 o 691 1.40 Yes Yes
1999RM45 O C K 2020-12-21.51215 1.000E-05 09:59:53.580 1.500E-01 0.500 F 0.073 -1.060 -00° 50' 52.10" 1.000E-01 0.500 F 0.162 0.135 21.4 R 0.70 -0.47 o 691 2.14 Yes Yes
2020MZ3 O C K 2020-12-21.53626 1.000E-05 09:58:50.450 1.500E-01 0.500 F 0.102 -0.127 +08° 52' 38.90" 1.000E-01 0.500 F 0.085 0.132 21.3 R 0.70 -0.02 o 691 0.37 Yes Yes
2002AX1 O C K 2020-12-21.54714 1.000E-05 12:05:26.760 1.500E-01 0.500 F 0.054 0.225 +30° 56' 09.80" 1.000E-01 0.500 F 0.302 0.095 18.9 R 0.70 -0.17 o 691 0.50 Yes Yes
2002AX1 O C K 2020-12-21.54939 1.000E-05 12:05:25.790 1.500E-01 0.500 F 0.054 -0.097 +30° 56' 10.30" 1.000E-01 0.500 F 0.302 0.308 18.7 R 0.70 -0.37 o 691 0.64 Yes Yes
2002AX1 O C K 2020-12-21.55165 1.000E-05 12:05:24.870 1.500E-01 0.500 F 0.054 0.280 +30° 56' 10.20" 1.000E-01 0.500 F 0.302 -0.078 19.0 R 0.70 -0.07 o 691 0.60 Yes Yes
2020XP O C K 2020-12-22.08930 1.000E-05 02:25:10.290 1.500E-01 0.500 F -0.298 0.174 +13° 14' 57.00" 1.000E-01 0.500 F 0.255 -0.012 21.1 R 0.70 0.18 o 691 0.36 Yes Yes
2020XP O C K 2020-12-22.11844 1.000E-05 02:25:18.750 1.500E-01 0.500 F -0.298 -0.038 +13° 15' 19.80" 1.000E-01 0.500 F 0.255 -0.309 21.1 R 0.70 0.18 o 691 0.63 Yes Yes
2020WC3 O C K 2020-12-22.14013 1.000E-05 03:11:24.190 1.500E-01 0.500 F -0.302 -0.223 -00° 51' 00.10" 1.000E-01 0.500 F 0.322 0.145 20.3 R 0.70 -0.15 o 691 0.54 Yes Yes
2020XP O C K 2020-12-22.14765 1.000E-05 02:25:27.220 1.500E-01 0.500 F -0.298 -0.099 +13° 15' 42.70" 1.000E-01 0.500 F 0.255 -0.352 20.8 R 0.70 -0.12 o 691 0.74 Yes Yes
2020WC3 O C K 2020-12-22.16928 1.000E-05 03:11:27.650 1.500E-01 0.500 F -0.302 -0.644 -00° 52' 56.10" 1.000E-01 0.500 F 0.322 -0.662 20.2 R 0.70 -0.25 o 691 1.87 Yes Yes
2009HD82 O C K 2020-12-22.17678 1.000E-05 02:39:09.160 1.500E-01 0.500 F -0.407 0.466 -16° 54' 49.70" 1.000E-01 0.500 F 0.026 -0.017 19.6 R 0.70 -0.35 o 691 0.95 Yes Yes
2020PD1 O C H 2020-12-22.18395 1.000E-05 03:28:14.690 1.500E-01 0.500 F -0.337 -0.034 -17° 04' 55.30" 1.000E-01 0.500 F 0.225 0.050 19.9 R 0.70 -0.19 o 691 0.12 Yes Yes

[1-200] [201-400] [401-600] [601-800] [801-1000] [1001-1200] [1201-1400] [1401-1600] [1601-1800] [1801-2000] [2001-2200] [2201-2400] [2401-2600] [2601-2800] [2801-3000] [3001-3200] [3201-3400] [3401-3600] [3601-3800] [3801-4000] [4001-4200] [4201-4400] [4401-4600] [4601-4800] [4801-5000] [5001-5200] [5201-5400] [5401-5600] [5601-5800] [5801-6000] [6001-6200] [6201-6400] [6401-6600] [6601-6800] [6801-7000] [7001-7200] [7201-7400] [7401-7600] [7601-7800] [7801-8000] [8001-8200] [8201-8400] [8401-8600] [8601-8800] [8801-9000] [9001-9200] [9201-9400] [9401-9600] [9601-9800] [9801-10000] [10001-10200] [10201-10400] [10401-10600] [10601-10800] [10801-11000] [11001-11200] [11201-11400] [11401-11600] [11601-11800] [11801-12000] [12001-12200] [12201-12400] [12401-12600] [12601-12800] [12801-13000] [13001-13200] [13201-13400] [13401-13600] [13601-13800] [13801-14000] [14001-14200] [14201-14400] [14401-14600] [14601-14800] [14801-15000] [15001-15200] [15201-15400] [15401-15600] [15601-15800] [15801-16000] [16001-16200] [16201-16400] [16401-16600] [16601-16800] [16801-17000] [17001-17200] [17201-17400] [17401-17600] [17601-17800] [17801-18000] [18001-18200] [18201-18400] [18401-18600] [18601-18800] [18801-19000] [19001-19200] [19201-19400] [19401-19600] [19601-19800] [19801-20000] [20001-20200] [20201-20400] [20401-20600] [20601-20800] [20801-21000] [21001-21200] [21201-21400] [21401-21600] [21601-21800] [21801-22000] [22001-22200] [22201-22400] [22401-22600] [22601-22800] [22801-23000] [23001-23200] [23201-23400] [23401-23600] [23601-23800] [23801-24000] [24001-24200] [24201-24400] [24401-24600] [24601-24800] [24801-25000] [25001-25200] [25201-25400] [25401-25600] [25601-25800] [25801-26000] [26001-26200] [26201-26400] [26401-26600] [26601-26800] [26801-27000] [27001-27200] [27201-27400] [27401-27600] [27601-27800] [27801-28000] [28001-28200] [28201-28400] [28401-28600] [28601-28800] [28801-29000] [29001-29200] [29201-29400] [29401-29600] [29601-29800] [29801-30000] [30001-30200] [30201-30400] [30401-30600] [30601-30800] [30801-31000] [31001-31200] [31201-31400] [31401-31600] [31601-31800] [31801-32000] [32001-32200] [32201-32400] [32401-32600] [32601-32800] [32801-33000] [33001-33200] [33201-33400] [33401-33600] [33601-33800] [33801-34000] [34001-34200] [34201-34400] [34401-34600] [34601-34800] [34801-35000] [35001-35200] [35201-35400] [35401-35600] [35601-35800] [35801-36000] [36001-36200] [36201-36400] [36401-36600] [36601-36800] [36801-37000] [37001-37200] [37201-37400] [37401-37600] [37601-37800] [37801-38000] [38001-38200] [38201-38400] [38401-38600] [38601-38800] [38801-39000] [39001-39200] [39201-39400] [39401-39600] [39601-39800] [39801-40000] [40001-40200] [40201-40400] [40401-40600] [40601-40800] [40801-41000] [41001-41200] [41201-41400] [41401-41600] [41601-41800] [41801-42000] [42001-42200] [42201-42400] [42401-42600] [42601-42800] [42801-43000] [43001-43200] [43201-43400] [43401-43600] [43601-43800] [43801-44000] [44001-44200] [44201-44400] [44401-44600] [44601-44800] [44801-45000] [45001-45200] [45201-45400] [45401-45600] [45601-45800] [45801-46000] [46001-46200] [46201-46400] [46401-46600] [46601-46800] [46801-47000] [47001-47200] [47201-47400] [47401-47600] [47601-47800] [47801-48000] [48001-48200] [48201-48400] [48401-48600] [48601-48800] [48801-49000] [49001-49200] [49201-49400] [49401-49600] [49601-49800] [49801-50000] [50001-50200] [50201-50388]